Aviation Digital Data Service (ADDS)

Output produced by METARs form (0944 UTC 23 January 2019)
found at http://aviationweather.gov/metar/data/
 
Forecast for: EPDA (DARTOWEK NAVAL , PL)
Text: TAF EPDA 230800Z 2309/2318 08006KT 7000 NSC
Forecast period: 0900 to 1800 UTC 23 January 2019
Forecast type: FROM: standard forecast or significant change
Winds: from the E (80 degrees) at 7 MPH (6 knots; 3.1 m/s)
Visibility: 4 miles (7 km)
Ceiling: unknown
Clouds: missing
Weather: no significant weather forecast for this period